createdAt,value
2019-02-12T00:00:14.250Z,2.96
2019-02-12T00:01:14.051Z,2.95
2019-02-12T00:02:13.446Z,2.97
2019-02-12T00:03:13.523Z,2.95
2019-02-12T00:04:15.246Z,2.98
2019-02-12T00:05:14.103Z,2.99
2019-02-12T00:06:14.186Z,2.96
2019-02-12T00:07:13.929Z,3
2019-02-12T00:08:13.705Z,3.01
2019-02-12T00:09:13.407Z,3.02
2019-02-12T00:10:13.941Z,3
2019-02-12T00:11:13.402Z,2.97
2019-02-12T00:12:13.617Z,2.99
2019-02-12T00:13:13.808Z,2.99
2019-02-12T00:14:14.121Z,2.99
2019-02-12T00:15:13.607Z,2.98
2019-02-12T00:16:13.718Z,2.96
2019-02-12T00:17:14.343Z,2.96
2019-02-12T00:18:13.490Z,2.94
2019-02-12T00:19:13.707Z,2.96
2019-02-12T00:20:14.068Z,2.94
2019-02-12T00:21:13.466Z,2.93
2019-02-12T00:22:13.513Z,2.92
2019-02-12T00:23:13.419Z,2.91
2019-02-12T00:24:15.202Z,2.87
2019-02-12T00:25:14.080Z,2.9
2019-02-12T00:26:14.611Z,2.84
2019-02-12T00:27:13.690Z,2.87
2019-02-12T00:28:14.214Z,2.83
2019-02-12T00:29:13.630Z,2.81
2019-02-12T00:30:13.480Z,2.83
2019-02-12T00:31:13.401Z,2.83
2019-02-12T00:32:13.826Z,2.78
2019-02-12T00:33:13.942Z,2.73
2019-02-12T00:34:13.634Z,2.72
2019-02-12T00:35:13.838Z,2.72
2019-02-12T00:36:13.857Z,2.73
2019-02-12T00:37:13.793Z,2.74
2019-02-12T00:38:13.777Z,2.76
2019-02-12T00:39:13.486Z,2.78
2019-02-12T00:40:13.514Z,2.77
2019-02-12T00:41:13.563Z,2.76
2019-02-12T00:42:13.590Z,2.77
2019-02-12T00:43:13.505Z,2.77
2019-02-12T00:44:13.371Z,2.78
2019-02-12T00:45:13.699Z,2.8
2019-02-12T00:46:13.376Z,2.8
2019-02-12T00:47:13.360Z,2.77
2019-02-12T00:48:13.532Z,2.79
2019-02-12T00:49:13.538Z,2.79
2019-02-12T00:50:14.012Z,2.78
2019-02-12T00:51:18.342Z,2.77
2019-02-12T00:52:13.417Z,2.8
2019-02-12T00:53:13.561Z,2.76
2019-02-12T00:54:13.279Z,2.74
2019-02-12T00:55:15.172Z,2.69
2019-02-12T00:56:13.409Z,2.65
2019-02-12T00:57:13.599Z,2.66
2019-02-12T00:58:14.742Z,2.62
2019-02-12T00:59:13.812Z,2.63
2019-02-12T01:00:15.053Z,2.62
2019-02-12T01:01:13.524Z,2.66
2019-02-12T01:02:13.786Z,2.64
2019-02-12T01:03:13.533Z,2.65
2019-02-12T01:04:13.674Z,2.66
2019-02-12T01:05:13.946Z,2.65
2019-02-12T01:06:13.279Z,2.61
2019-02-12T01:07:13.564Z,2.64
2019-02-12T01:08:13.752Z,2.65
2019-02-12T01:09:13.265Z,2.64
2019-02-12T01:10:15.184Z,2.64
2019-02-12T01:11:13.289Z,2.64
2019-02-12T01:12:14.095Z,2.62
2019-02-12T01:13:13.373Z,2.65
2019-02-12T01:14:14.004Z,2.66
2019-02-12T01:15:13.644Z,2.66
2019-02-12T01:16:13.593Z,2.67
2019-02-12T01:17:13.522Z,2.7
2019-02-12T01:18:13.721Z,2.64
2019-02-12T01:19:14.332Z,2.6
2019-02-12T01:20:13.571Z,2.65
2019-02-12T01:21:14.249Z,2.65
2019-02-12T01:22:13.317Z,2.65
2019-02-12T01:23:13.405Z,2.7
2019-02-12T01:24:13.310Z,2.68
2019-02-12T01:25:13.566Z,2.69
2019-02-12T01:26:13.274Z,2.65
2019-02-12T01:27:13.098Z,2.64
2019-02-12T01:28:15.160Z,2.66
2019-02-12T01:29:13.758Z,2.65
2019-02-12T01:30:13.803Z,2.66
2019-02-12T01:31:14.422Z,2.7
2019-02-12T01:32:13.924Z,2.7
2019-02-12T01:33:13.521Z,2.72
2019-02-12T01:34:13.610Z,2.71
2019-02-12T01:35:14.151Z,2.72
2019-02-12T01:36:14.147Z,2.68
2019-02-12T01:37:13.640Z,2.67
2019-02-12T01:38:13.506Z,2.65
2019-02-12T01:39:15.102Z,2.63
2019-02-12T01:40:13.290Z,2.6
2019-02-12T01:41:15.106Z,2.56
2019-02-12T01:42:13.718Z,2.56
2019-02-12T01:43:14.084Z,2.55
2019-02-12T01:44:14.838Z,2.55
2019-02-12T01:45:13.744Z,2.54
2019-02-12T01:46:15.088Z,2.52
2019-02-12T01:47:13.236Z,2.54
2019-02-12T01:48:13.625Z,2.54
2019-02-12T01:49:13.623Z,2.54
2019-02-12T01:50:13.798Z,2.51
2019-02-12T01:51:13.957Z,2.52
2019-02-12T01:52:14.561Z,2.5
2019-02-12T01:53:13.355Z,2.49
2019-02-12T01:54:13.558Z,2.49
2019-02-12T01:55:13.383Z,2.47
2019-02-12T01:56:13.205Z,2.48
2019-02-12T01:57:14.023Z,2.45
2019-02-12T01:58:14.157Z,2.45
2019-02-12T01:59:13.635Z,2.44
2019-02-12T02:00:14.622Z,2.44
2019-02-12T02:01:13.824Z,2.44
2019-02-12T02:02:13.616Z,2.44
2019-02-12T02:03:13.343Z,2.44
2019-02-12T02:04:13.282Z,2.44
2019-02-12T02:05:13.933Z,2.4
2019-02-12T02:06:13.254Z,2.42
2019-02-12T02:07:13.536Z,2.41
2019-02-12T02:08:15.092Z,2.4
2019-02-12T02:09:13.262Z,2.42
2019-02-12T02:10:13.415Z,2.38
2019-02-12T02:11:13.730Z,2.38
2019-02-12T02:12:13.566Z,2.37
2019-02-12T02:13:14.378Z,2.34
2019-02-12T02:14:13.470Z,2.34
2019-02-12T02:15:13.592Z,2.31
2019-02-12T02:16:13.362Z,2.28
2019-02-12T02:17:13.602Z,2.26
2019-02-12T02:18:13.365Z,2.26
2019-02-12T02:19:13.391Z,2.23
2019-02-12T02:20:13.592Z,2.23
2019-02-12T02:21:13.284Z,2.23
2019-02-12T02:22:14.356Z,2.23
2019-02-12T02:23:13.175Z,2.22
2019-02-12T02:24:13.301Z,2.22
2019-02-12T02:25:13.449Z,2.24
2019-02-12T02:26:13.265Z,2.23
2019-02-12T02:27:13.356Z,2.22
2019-02-12T02:28:13.461Z,2.2
2019-02-12T02:29:13.350Z,2.16
2019-02-12T02:30:13.765Z,2.15
2019-02-12T02:31:13.509Z,2.14
2019-02-12T02:32:15.010Z,2.17
2019-02-12T02:33:13.299Z,2.14
2019-02-12T02:34:13.513Z,2.14
2019-02-12T02:35:13.291Z,2.15
2019-02-12T02:36:13.400Z,2.16
2019-02-12T02:37:13.365Z,2.14
2019-02-12T02:38:13.162Z,2.17
2019-02-12T02:39:13.260Z,2.15
2019-02-12T02:40:13.346Z,2.15
2019-02-12T02:41:14.478Z,2.17
2019-02-12T02:42:13.657Z,2.17
2019-02-12T02:43:13.573Z,2.18
2019-02-12T02:44:13.139Z,2.18
2019-02-12T02:45:13.443Z,2.17
2019-02-12T02:46:13.192Z,2.16
2019-02-12T02:47:13.693Z,2.15
2019-02-12T02:48:13.278Z,2.14
2019-02-12T02:49:13.808Z,2.13
2019-02-12T02:50:14.380Z,2.14
2019-02-12T02:51:14.070Z,2.14
2019-02-12T02:52:15.003Z,2.12
2019-02-12T02:53:13.652Z,2.14
2019-02-12T02:54:13.165Z,2.14
2019-02-12T02:55:13.354Z,2.18
2019-02-12T02:56:13.189Z,2.16
2019-02-12T02:57:13.929Z,2.17
2019-02-12T02:58:13.143Z,2.18
2019-02-12T02:59:13.567Z,2.16
2019-02-12T03:00:13.903Z,2.18
2019-02-12T03:01:13.232Z,2.16
2019-02-12T03:02:13.613Z,2.2
2019-02-12T03:03:13.257Z,2.2
2019-02-12T03:04:13.391Z,2.19
2019-02-12T03:05:13.318Z,2.21
2019-02-12T03:06:13.249Z,2.2
2019-02-12T03:07:13.656Z,2.19
2019-02-12T03:08:13.734Z,2.2
2019-02-12T03:09:13.216Z,2.21
2019-02-12T03:10:13.767Z,2.21
2019-02-12T03:11:13.556Z,2.21
2019-02-12T03:12:13.482Z,2.24
2019-02-12T03:13:13.350Z,2.23
2019-02-12T03:14:13.339Z,2.25
2019-02-12T03:15:13.326Z,2.25
2019-02-12T03:16:13.505Z,2.24
2019-02-12T03:17:14.958Z,2.26
2019-02-12T03:18:13.467Z,2.26
2019-02-12T03:19:13.238Z,2.27
2019-02-12T03:20:13.542Z,2.27
2019-02-12T03:21:13.632Z,2.28
2019-02-12T03:22:13.421Z,2.31
2019-02-12T03:23:15.044Z,2.32
2019-02-12T03:24:13.735Z,2.33
2019-02-12T03:25:13.107Z,2.33
2019-02-12T03:26:13.102Z,2.36
2019-02-12T03:27:12.951Z,2.36
2019-02-12T03:28:13.466Z,2.36
2019-02-12T03:29:13.357Z,2.36
2019-02-12T03:30:13.760Z,2.38
2019-02-12T03:31:13.398Z,2.37
2019-02-12T03:32:13.278Z,2.36
2019-02-12T03:33:13.571Z,2.4
2019-02-12T03:34:13.456Z,2.37
2019-02-12T03:35:13.963Z,2.38
2019-02-12T03:36:13.179Z,2.39
2019-02-12T03:37:13.169Z,2.41
2019-02-12T03:38:13.463Z,2.4
2019-02-12T03:39:13.850Z,2.4
2019-02-12T03:40:13.165Z,2.43
2019-02-12T03:41:13.271Z,2.45
2019-02-12T03:42:13.706Z,2.44
2019-02-12T03:43:13.089Z,2.46
2019-02-12T03:44:13.346Z,2.5
2019-02-12T03:45:13.142Z,2.49
2019-02-12T03:46:13.378Z,2.47
2019-02-12T03:47:13.589Z,2.49
2019-02-12T03:48:13.698Z,2.49
2019-02-12T03:49:13.376Z,2.45
2019-02-12T03:50:13.234Z,2.44
2019-02-12T03:51:13.107Z,2.44
2019-02-12T03:52:13.573Z,2.43
2019-02-12T03:53:13.195Z,2.42
2019-02-12T03:54:13.174Z,2.43
2019-02-12T03:55:13.505Z,2.45
2019-02-12T03:56:13.135Z,2.45
2019-02-12T03:57:13.170Z,2.45
2019-02-12T03:58:13.067Z,2.44
2019-02-12T03:59:13.586Z,2.45
2019-02-12T04:00:13.776Z,2.46
2019-02-12T04:01:13.211Z,2.48
2019-02-12T04:02:13.231Z,2.51
2019-02-12T04:03:13.269Z,2.5
2019-02-12T04:04:13.023Z,2.51
2019-02-12T04:05:14.869Z,2.51
2019-02-12T04:06:13.935Z,2.54
2019-02-12T04:07:13.623Z,2.52
2019-02-12T04:08:13.300Z,2.55
2019-02-12T04:09:13.964Z,2.55
2019-02-12T04:10:13.203Z,2.56
2019-02-12T04:11:13.133Z,2.55
2019-02-12T04:12:13.284Z,2.55
2019-02-12T04:13:13.273Z,2.56
2019-02-12T04:14:13.097Z,2.56
2019-02-12T04:15:13.076Z,2.57
2019-02-12T04:16:13.380Z,2.58
2019-02-12T04:17:13.124Z,2.58
2019-02-12T04:18:13.052Z,2.56
2019-02-12T04:19:13.120Z,2.57
2019-02-12T04:20:13.086Z,2.56
2019-02-12T04:21:13.031Z,2.57
2019-02-12T04:22:23.547Z,2.56
2019-02-12T04:23:13.626Z,2.56
2019-02-12T04:24:13.418Z,2.57
2019-02-12T04:25:13.074Z,2.56
2019-02-12T04:26:13.130Z,2.56
2019-02-12T04:27:13.391Z,2.56
2019-02-12T04:28:14.064Z,2.55
2019-02-12T04:29:13.359Z,2.55
2019-02-12T04:30:13.115Z,2.56
2019-02-12T04:31:13.614Z,2.55
2019-02-12T04:32:13.201Z,2.54
2019-02-12T04:33:14.980Z,2.53
2019-02-12T04:34:13.281Z,2.53
2019-02-12T04:35:13.303Z,2.5
2019-02-12T04:36:13.261Z,2.49
2019-02-12T04:37:13.120Z,2.49
2019-02-12T04:38:13.099Z,2.49
2019-02-12T04:39:12.940Z,2.48
2019-02-12T04:40:13.381Z,2.46
2019-02-12T04:41:13.034Z,2.45
2019-02-12T04:42:13.107Z,2.45
2019-02-12T04:43:13.552Z,2.45
2019-02-12T04:44:13.145Z,2.45
2019-02-12T04:45:13.924Z,2.46
2019-02-12T04:46:13.202Z,2.46
2019-02-12T04:47:13.379Z,2.47
2019-02-12T04:48:13.310Z,2.49
2019-02-12T04:49:13.475Z,2.48
2019-02-12T04:50:14.133Z,2.49
2019-02-12T04:51:13.384Z,2.46
2019-02-12T04:52:13.287Z,2.46
2019-02-12T04:53:14.097Z,2.47
2019-02-12T04:54:13.465Z,2.45
2019-02-12T04:55:13.211Z,2.45
2019-02-12T04:56:13.422Z,2.44
2019-02-12T04:57:13.261Z,2.44
2019-02-12T04:58:13.199Z,2.44
2019-02-12T04:59:14.835Z,2.41
2019-02-12T05:00:13.124Z,2.42
2019-02-12T05:01:13.223Z,2.42
2019-02-12T05:02:14.786Z,2.4
2019-02-12T05:03:14.008Z,2.4
2019-02-12T05:04:13.186Z,2.39
2019-02-12T05:05:13.237Z,2.39
2019-02-12T05:06:13.334Z,2.38
2019-02-12T05:07:13.307Z,2.37
2019-02-12T05:08:14.197Z,2.35
2019-02-12T05:09:13.478Z,2.35
2019-02-12T05:10:13.943Z,2.32
2019-02-12T05:11:13.071Z,2.32
2019-02-12T05:12:13.154Z,2.3
2019-02-12T05:13:13.644Z,2.27
2019-02-12T05:14:14.787Z,2.27
2019-02-12T05:15:13.105Z,2.28
2019-02-12T05:16:13.659Z,2.27
2019-02-12T05:17:13.205Z,2.25
2019-02-12T05:18:13.445Z,2.22
2019-02-12T05:19:14.690Z,2.21
2019-02-12T05:20:13.272Z,2.17
2019-02-12T05:21:13.589Z,2.18
2019-02-12T05:22:13.392Z,2.19
2019-02-12T05:23:13.217Z,2.17
2019-02-12T05:24:12.924Z,2.17
2019-02-12T05:25:13.974Z,2.18
2019-02-12T05:26:13.843Z,2.19
2019-02-12T05:27:12.971Z,2.16
2019-02-12T05:28:12.928Z,2.15
2019-02-12T05:29:13.326Z,2.13
2019-02-12T05:30:13.333Z,2.14
2019-02-12T05:31:13.625Z,2.13
2019-02-12T05:32:13.223Z,2.12
2019-02-12T05:33:13.575Z,2.14
2019-02-12T05:34:13.703Z,2.12
2019-02-12T05:35:13.521Z,2.12
2019-02-12T05:36:13.006Z,2.11
2019-02-12T05:37:13.044Z,2.11
2019-02-12T05:38:12.868Z,2.09
2019-02-12T05:39:12.940Z,2.09
2019-02-12T05:40:13.216Z,2.1
2019-02-12T05:41:13.440Z,2.12
2019-02-12T05:42:14.768Z,2.12
2019-02-12T05:43:13.081Z,2.1
2019-02-12T05:44:13.127Z,2.12
2019-02-12T05:45:13.110Z,2.13
2019-02-12T05:46:14.749Z,2.12
2019-02-12T05:47:13.819Z,2.09
2019-02-12T05:48:13.102Z,2.09
2019-02-12T05:49:13.136Z,2.08
2019-02-12T05:50:13.251Z,2.09
2019-02-12T05:51:13.299Z,2.09
2019-02-12T05:52:13.263Z,2.09
2019-02-12T05:53:13.157Z,2.11
2019-02-12T05:54:13.093Z,2.12
2019-02-12T05:55:13.419Z,2.11
2019-02-12T05:56:13.206Z,2.09
2019-02-12T05:57:12.877Z,2.08
2019-02-12T05:58:12.977Z,2.08
2019-02-12T05:59:13.237Z,2.08
2019-02-12T06:00:13.181Z,2.07
2019-02-12T06:01:14.708Z,2.07
2019-02-12T06:02:13.123Z,2.05
2019-02-12T06:03:13.110Z,2.06
2019-02-12T06:04:12.944Z,2.07
2019-02-12T06:05:13.165Z,2.04
2019-02-12T06:06:13.182Z,2.01
2019-02-12T06:07:13.376Z,2
2019-02-12T06:08:13.707Z,1.97
2019-02-12T06:09:13.301Z,1.96
2019-02-12T06:10:13.225Z,1.99
2019-02-12T06:11:13.273Z,1.96
2019-02-12T06:12:13.480Z,1.96
2019-02-12T06:13:13.171Z,1.97
2019-02-12T06:14:13.139Z,1.97
2019-02-12T06:15:13.447Z,1.96
2019-02-12T06:16:13.222Z,1.97
2019-02-12T06:17:13.219Z,1.97
2019-02-12T06:18:13.567Z,2
2019-02-12T06:19:15.210Z,1.96
2019-02-12T06:20:13.169Z,2.01
2019-02-12T06:21:13.160Z,2
2019-02-12T06:22:13.295Z,2.01
2019-02-12T06:23:13.162Z,2.01
2019-02-12T06:24:13.258Z,2.03
2019-02-12T06:25:14.132Z,2.01
2019-02-12T06:26:13.558Z,2.02
2019-02-12T06:27:12.917Z,2.04
2019-02-12T06:28:13.170Z,2.03
2019-02-12T06:29:14.678Z,2.02
2019-02-12T06:30:13.416Z,2.01
2019-02-12T06:31:12.921Z,2.01
2019-02-12T06:32:13.242Z,1.99
2019-02-12T06:33:13.127Z,1.99
2019-02-12T06:34:13.166Z,1.98
2019-02-12T06:35:13.166Z,1.96
2019-02-12T06:36:13.019Z,1.96
2019-02-12T06:37:12.958Z,1.96
2019-02-12T06:38:12.835Z,1.97
2019-02-12T06:39:13.217Z,1.94
2019-02-12T06:40:13.139Z,1.96
2019-02-12T06:41:12.940Z,1.97
2019-02-12T06:42:12.906Z,1.95
2019-02-12T06:43:14.659Z,1.93
2019-02-12T06:44:13.138Z,1.93
2019-02-12T06:45:13.182Z,1.9
2019-02-12T06:46:14.673Z,1.91
2019-02-12T06:47:13.254Z,1.88
2019-02-12T06:48:13.179Z,1.87
2019-02-12T06:49:13.766Z,1.83
2019-02-12T06:50:13.187Z,1.81
2019-02-12T06:51:13.632Z,1.79
2019-02-12T06:52:13.233Z,1.79
2019-02-12T06:53:13.393Z,1.81
2019-02-12T06:54:13.180Z,1.79
2019-02-12T06:55:12.791Z,1.81
2019-02-12T06:56:13.102Z,1.79
2019-02-12T06:57:13.236Z,1.81
2019-02-12T06:58:13.215Z,1.82
2019-02-12T06:59:14.636Z,1.79
2019-02-12T07:00:13.332Z,1.8
2019-02-12T07:01:13.181Z,1.78
2019-02-12T07:02:13.426Z,1.81
2019-02-12T07:03:13.672Z,1.83
2019-02-12T07:04:13.006Z,1.83
2019-02-12T07:05:12.898Z,1.83
2019-02-12T07:06:13.260Z,1.83
2019-02-12T07:07:13.159Z,1.83
2019-02-12T07:08:12.807Z,1.84
2019-02-12T07:09:12.935Z,1.86
2019-02-12T07:10:13.123Z,1.86
2019-02-12T07:11:12.881Z,1.85
2019-02-12T07:12:14.619Z,1.87
2019-02-12T07:13:13.205Z,1.87
2019-02-12T07:14:13.118Z,1.9
2019-02-12T07:15:13.227Z,1.89
2019-02-12T07:16:13.497Z,1.89
2019-02-12T07:17:12.777Z,1.89
2019-02-12T07:18:13.138Z,1.93
2019-02-12T07:19:12.843Z,1.94
2019-02-12T07:20:13.018Z,1.96
2019-02-12T07:21:13.223Z,1.95
2019-02-12T07:22:12.825Z,1.97
2019-02-12T07:23:21.847Z,1.99
2019-02-12T07:24:13.175Z,1.97
2019-02-12T07:25:13.672Z,1.98
2019-02-12T07:26:13.099Z,1.95
2019-02-12T07:27:13.211Z,1.95
2019-02-12T07:28:12.774Z,1.95
2019-02-12T07:29:12.827Z,1.94
2019-02-12T07:30:12.762Z,1.96
2019-02-12T07:31:13.119Z,1.96
2019-02-12T07:32:13.675Z,1.99
2019-02-12T07:33:13.882Z,1.96
2019-02-12T07:34:12.879Z,1.96
2019-02-12T07:35:14.911Z,1.98
2019-02-12T07:36:13.066Z,1.96
2019-02-12T07:37:12.789Z,1.99
2019-02-12T07:38:13.206Z,1.98
2019-02-12T07:39:13.206Z,2
2019-02-12T07:40:13.292Z,2.01
2019-02-12T07:41:20.846Z,2.01
2019-02-12T07:42:12.807Z,2.02
2019-02-12T07:43:12.722Z,2.02
2019-02-12T07:44:14.695Z,2.02
2019-02-12T07:45:12.886Z,2.02
2019-02-12T07:46:12.821Z,2.02
2019-02-12T07:47:13.954Z,2.01
2019-02-12T07:48:13.425Z,2.01
2019-02-12T07:49:12.809Z,2.03
2019-02-12T07:50:13.050Z,2.05
2019-02-12T07:51:13.162Z,2.04
2019-02-12T07:52:12.763Z,2.06
2019-02-12T07:53:13.102Z,2.06
2019-02-12T07:54:12.673Z,2.07
2019-02-12T07:55:12.741Z,2.06
2019-02-12T07:56:13.115Z,2.06
2019-02-12T07:57:12.666Z,2.06
2019-02-12T07:58:13.238Z,2.07
2019-02-12T07:59:12.731Z,2.08
2019-02-12T08:00:13.070Z,2.1
2019-02-12T08:01:12.665Z,2.11
2019-02-12T08:02:13.503Z,2.09
2019-02-12T08:03:14.533Z,2.12
2019-02-12T08:04:13.181Z,2.12
2019-02-12T08:05:12.757Z,2.13
2019-02-12T08:06:13.155Z,2.11
2019-02-12T08:07:13.267Z,2.13
2019-02-12T08:08:12.853Z,2.13
2019-02-12T08:09:13.161Z,2.13
2019-02-12T08:10:12.804Z,2.13
2019-02-12T08:11:13.075Z,2.15
2019-02-12T08:12:12.769Z,2.16
2019-02-12T08:13:13.240Z,2.16
2019-02-12T08:14:12.994Z,2.16
2019-02-12T08:15:12.848Z,2.16
2019-02-12T08:16:12.926Z,2.17
2019-02-12T08:17:13.310Z,2.2
2019-02-12T08:18:12.802Z,2.2
2019-02-12T08:19:13.328Z,2.2
2019-02-12T08:20:14.211Z,2.2
2019-02-12T08:21:12.846Z,2.2
2019-02-12T08:22:14.562Z,2.22
2019-02-12T08:23:12.984Z,2.22
2019-02-12T08:24:13.304Z,2.25
2019-02-12T08:25:13.406Z,2.25
2019-02-12T08:26:12.901Z,2.27
2019-02-12T08:27:13.094Z,2.31
2019-02-12T08:28:12.700Z,2.33
2019-02-12T08:29:13.235Z,2.35
2019-02-12T08:30:12.817Z,2.36
2019-02-12T08:31:12.915Z,2.38
2019-02-12T08:32:12.719Z,2.38
2019-02-12T08:33:12.927Z,2.38
2019-02-12T08:34:13.039Z,2.38
2019-02-12T08:35:12.916Z,2.39
2019-02-12T08:36:12.692Z,2.4
2019-02-12T08:37:14.461Z,2.4
2019-02-12T08:38:12.961Z,2.41
2019-02-12T08:39:13.776Z,2.44
2019-02-12T08:40:13.465Z,2.43
2019-02-12T08:41:12.897Z,2.44
2019-02-12T08:42:12.764Z,2.46
2019-02-12T08:43:14.461Z,2.5
2019-02-12T08:44:12.981Z,2.47
2019-02-12T08:45:12.450Z,2.5
2019-02-12T08:46:13.150Z,2.48
2019-02-12T08:47:12.917Z,2.49
2019-02-12T08:48:13.191Z,2.51
2019-02-12T08:49:12.694Z,2.54
2019-02-12T08:50:13.243Z,2.57
2019-02-12T08:51:13.147Z,2.55
2019-02-12T08:52:13.240Z,2.59
2019-02-12T08:53:12.720Z,2.56
2019-02-12T08:54:12.733Z,2.57
2019-02-12T08:55:12.608Z,2.59
2019-02-12T08:56:14.657Z,2.6
2019-02-12T08:57:12.625Z,2.61
2019-02-12T08:58:12.817Z,2.64
2019-02-12T08:59:12.608Z,2.64
2019-02-12T09:00:13.192Z,2.65
2019-02-12T09:01:13.624Z,2.65
2019-02-12T09:02:13.433Z,2.68
2019-02-12T09:03:13.008Z,2.67
2019-02-12T09:04:12.614Z,2.69
2019-02-12T09:05:13.147Z,2.68
2019-02-12T09:06:12.791Z,2.69
2019-02-12T09:07:12.598Z,2.72
2019-02-12T09:08:12.915Z,2.73
2019-02-12T09:09:12.965Z,2.76
2019-02-12T09:10:12.863Z,2.78
2019-02-12T09:11:12.788Z,2.78
2019-02-12T09:12:12.599Z,2.79
2019-02-12T09:13:13.527Z,2.79
2019-02-12T09:14:12.894Z,2.82
2019-02-12T09:15:13.823Z,2.82
2019-02-12T09:16:12.568Z,2.83
2019-02-12T09:17:12.665Z,2.82
2019-02-12T09:18:12.659Z,2.8
2019-02-12T09:19:12.692Z,2.8
2019-02-12T09:20:12.988Z,2.82
2019-02-12T09:21:12.923Z,2.84
2019-02-12T09:22:12.835Z,2.84
2019-02-12T09:23:12.834Z,2.85
2019-02-12T09:24:14.756Z,2.87
2019-02-12T09:25:13.468Z,2.85
2019-02-12T09:26:12.850Z,2.87
2019-02-12T09:27:14.414Z,2.87
2019-02-12T09:28:12.797Z,2.9
2019-02-12T09:29:12.682Z,2.92
2019-02-12T09:30:12.895Z,2.97
2019-02-12T09:31:12.828Z,3
2019-02-12T09:32:12.922Z,2.99
2019-02-12T09:33:14.407Z,3.02
2019-02-12T09:34:12.524Z,3.03
2019-02-12T09:35:12.921Z,3.02
2019-02-12T09:36:13.075Z,3.03
2019-02-12T09:37:13.047Z,3.06
2019-02-12T09:38:12.845Z,3.07
2019-02-12T09:39:13.034Z,3.08
2019-02-12T09:40:19.704Z,3.09
2019-02-12T09:41:12.977Z,3.09
2019-02-12T09:42:12.979Z,3.09
2019-02-12T09:43:13.402Z,3.1
2019-02-12T09:44:13.098Z,3.14
2019-02-12T09:45:13.224Z,3.13
2019-02-12T09:46:12.564Z,3.16
2019-02-12T09:47:13.118Z,3.16
2019-02-12T09:48:12.663Z,3.19
2019-02-12T09:49:13.021Z,3.21
2019-02-12T09:50:12.738Z,3.23
2019-02-12T09:51:13.224Z,3.27
2019-02-12T09:52:13.552Z,3.27
2019-02-12T09:53:13.976Z,3.29
2019-02-12T09:54:12.856Z,3.32
2019-02-12T09:55:12.909Z,3.32
2019-02-12T09:56:12.863Z,3.33
2019-02-12T09:57:13.082Z,3.38
2019-02-12T09:58:13.118Z,3.38
2019-02-12T09:59:12.766Z,3.39
2019-02-12T10:00:13.190Z,3.42
2019-02-12T10:01:12.892Z,3.46
2019-02-12T10:02:13.780Z,3.49
2019-02-12T10:03:12.843Z,3.53
2019-02-12T10:04:12.954Z,3.56
2019-02-12T10:05:12.487Z,3.58
2019-02-12T10:06:24.548Z,3.63
2019-02-12T10:07:13.192Z,3.65
2019-02-12T10:08:12.720Z,3.68
2019-02-12T10:09:12.950Z,3.71
2019-02-12T10:10:12.622Z,3.73
2019-02-12T10:11:12.545Z,3.75
2019-02-12T10:12:12.635Z,3.77
2019-02-12T10:13:12.874Z,3.79
2019-02-12T10:14:12.798Z,3.79
2019-02-12T10:15:13.219Z,3.8
2019-02-12T10:16:13.094Z,3.83
2019-02-12T10:17:12.995Z,3.83
2019-02-12T10:18:13.115Z,3.84
2019-02-12T10:19:12.918Z,3.84
2019-02-12T10:20:13.315Z,3.85
2019-02-12T10:21:12.524Z,3.85
2019-02-12T10:22:12.789Z,3.85
2019-02-12T10:23:13.038Z,3.9
2019-02-12T10:25:13.391Z,3.89
2019-02-12T10:26:12.652Z,3.92
2019-02-12T10:27:12.883Z,3.92
2019-02-12T10:28:13.330Z,3.93
2019-02-12T10:29:13.129Z,3.97
2019-02-12T10:30:12.671Z,3.99
2019-02-12T10:31:12.878Z,4
2019-02-12T10:32:12.826Z,4.02
2019-02-12T10:33:12.473Z,4.04
2019-02-12T10:34:12.820Z,4.05
2019-02-12T10:35:12.626Z,4.08
2019-02-12T10:36:12.871Z,4.1
2019-02-12T10:37:13.222Z,4.14
2019-02-12T10:39:12.944Z,4.21
2019-02-12T10:40:14.120Z,4.24
2019-02-12T10:41:12.760Z,4.28
2019-02-12T10:42:12.636Z,4.29
2019-02-12T10:43:12.585Z,4.28
2019-02-12T10:44:13.084Z,4.31
2019-02-12T10:45:13.211Z,4.29
2019-02-12T10:46:14.309Z,4.34
2019-02-12T10:47:12.744Z,4.38
2019-02-12T10:48:12.611Z,4.41
2019-02-12T10:49:12.417Z,4.46
2019-02-12T10:50:12.818Z,4.48
2019-02-12T10:51:12.621Z,4.5
2019-02-12T10:52:12.929Z,4.56
2019-02-12T10:53:13.092Z,4.56
2019-02-12T10:54:14.027Z,4.6
2019-02-12T10:55:13.260Z,4.61
2019-02-12T10:56:14.276Z,4.65
2019-02-12T10:57:13.532Z,4.69
2019-02-12T10:58:12.548Z,4.71
2019-02-12T10:59:14.765Z,4.75
2019-02-12T11:00:13.686Z,4.76
2019-02-12T11:01:12.443Z,4.78
2019-02-12T11:02:12.688Z,4.83
2019-02-12T11:03:12.671Z,4.85
2019-02-12T11:04:12.780Z,4.85
2019-02-12T11:05:12.493Z,4.85
2019-02-12T11:06:12.472Z,4.87
2019-02-12T11:07:12.494Z,4.91
2019-02-12T11:08:13.847Z,4.91
2019-02-12T11:09:12.631Z,4.9
2019-02-12T11:10:12.950Z,4.91
2019-02-12T11:11:15.679Z,4.92
2019-02-12T11:12:12.762Z,4.96
2019-02-12T11:13:12.562Z,4.97
2019-02-12T11:14:12.791Z,5
2019-02-12T11:15:12.671Z,5.01
2019-02-12T11:16:12.461Z,5.03
2019-02-12T11:17:13.439Z,5.04
2019-02-12T11:18:14.206Z,5.06
2019-02-12T11:19:12.791Z,5.05
2019-02-12T11:20:12.896Z,5.09
2019-02-12T11:21:12.753Z,5.12
2019-02-12T11:22:14.253Z,5.1
2019-02-12T11:23:12.417Z,5.14
2019-02-12T11:24:12.394Z,5.16
2019-02-12T11:25:12.619Z,5.16
2019-02-12T11:26:13.081Z,5.18
2019-02-12T11:27:13.693Z,5.21
2019-02-12T11:28:12.648Z,5.19
2019-02-12T11:29:12.860Z,5.21
2019-02-12T11:30:12.414Z,5.21
2019-02-12T11:31:12.772Z,5.22
2019-02-12T11:32:12.873Z,5.22
2019-02-12T11:33:12.987Z,5.25
2019-02-12T11:34:14.221Z,5.28
2019-02-12T11:35:12.996Z,5.28
2019-02-12T11:36:12.396Z,5.31
2019-02-12T11:37:12.537Z,5.31
2019-02-12T11:38:12.694Z,5.41
2019-02-12T11:39:12.385Z,5.42
2019-02-12T11:40:13.810Z,5.41
2019-02-12T11:41:12.398Z,5.4
2019-02-12T11:42:12.646Z,5.42
2019-02-12T11:43:12.645Z,5.44
2019-02-12T11:44:13.168Z,5.43
2019-02-12T11:45:12.762Z,5.43
2019-02-12T11:46:12.680Z,5.42
2019-02-12T11:47:12.682Z,5.42
2019-02-12T11:48:12.454Z,5.48
2019-02-12T11:49:12.328Z,5.52
2019-02-12T11:50:12.583Z,5.58
2019-02-12T11:51:12.554Z,5.62
2019-02-12T11:52:12.398Z,5.66
2019-02-12T11:53:12.802Z,5.65
2019-02-12T11:54:12.422Z,5.69
2019-02-12T11:55:12.825Z,5.66
2019-02-12T11:56:12.417Z,5.67
2019-02-12T11:57:12.849Z,5.67
2019-02-12T11:58:12.637Z,5.66
2019-02-12T11:59:12.468Z,5.62
2019-02-12T12:00:12.546Z,5.65
2019-02-12T12:01:12.672Z,5.68
2019-02-12T12:02:14.165Z,5.66
2019-02-12T12:03:12.657Z,5.67
2019-02-12T12:04:12.685Z,5.68
2019-02-12T12:05:12.686Z,5.66
2019-02-12T12:06:12.892Z,5.66
2019-02-12T12:07:12.426Z,5.75
2019-02-12T12:08:12.800Z,5.76
2019-02-12T12:09:12.340Z,5.8
2019-02-12T12:10:12.462Z,5.81
2019-02-12T12:11:12.287Z,5.88
2019-02-12T12:12:12.464Z,5.91
2019-02-12T12:13:12.399Z,5.91
2019-02-12T12:14:12.302Z,5.94
2019-02-12T12:15:12.328Z,5.92
2019-02-12T12:16:12.669Z,5.91
2019-02-12T12:17:12.268Z,5.92
2019-02-12T12:18:12.333Z,5.96
2019-02-12T12:19:14.121Z,6.01
2019-02-12T12:20:12.342Z,6.05
2019-02-12T12:21:12.408Z,6.02
2019-02-12T12:22:12.338Z,6.05
2019-02-12T12:23:12.302Z,6.05
2019-02-12T12:24:12.377Z,6.09
2019-02-12T12:25:12.633Z,6.04
2019-02-12T12:26:12.411Z,6.07
2019-02-12T12:27:12.750Z,6.04
2019-02-12T12:28:12.378Z,6.03
2019-02-12T12:29:12.652Z,6.05
2019-02-12T12:30:12.265Z,6.04
2019-02-12T12:31:12.774Z,6.03
2019-02-12T12:32:12.430Z,6.08
2019-02-12T12:33:12.685Z,6.09
2019-02-12T12:34:12.275Z,6.12
2019-02-12T12:35:12.597Z,6.08
2019-02-12T12:36:12.465Z,6.16
2019-02-12T12:37:12.274Z,6.18
2019-02-12T12:38:12.373Z,6.11
2019-02-12T12:39:12.633Z,6.18
2019-02-12T12:40:12.300Z,6.17
2019-02-12T12:41:12.845Z,6.22
2019-02-12T12:42:12.403Z,6.15
2019-02-12T12:43:13.441Z,6.2
2019-02-12T12:44:12.462Z,6.22
2019-02-12T12:45:12.286Z,6.24
2019-02-12T12:46:12.777Z,6.25
2019-02-12T12:47:13.447Z,6.28
2019-02-12T12:48:12.382Z,6.29
2019-02-12T12:49:12.348Z,6.27
2019-02-12T12:50:12.398Z,6.32
2019-02-12T12:51:12.341Z,6.32
2019-02-12T12:52:12.356Z,6.31
2019-02-12T12:53:12.321Z,6.3
2019-02-12T12:54:12.263Z,6.33
2019-02-12T12:55:12.261Z,6.33
2019-02-12T12:56:12.283Z,6.37
2019-02-12T12:57:13.277Z,6.33
2019-02-12T12:58:14.105Z,6.35
2019-02-12T12:59:12.851Z,6.4
2019-02-12T13:00:12.782Z,6.39
2019-02-12T13:01:12.262Z,6.41
2019-02-12T13:02:14.078Z,6.43
2019-02-12T13:03:13.795Z,6.45
2019-02-12T13:04:13.467Z,6.49
2019-02-12T13:05:12.679Z,6.56
2019-02-12T13:06:12.202Z,6.55
2019-02-12T13:07:12.567Z,6.52
2019-02-12T13:08:12.800Z,6.55
2019-02-12T13:09:12.230Z,6.56
2019-02-12T13:10:12.252Z,6.58
2019-02-12T13:11:12.216Z,6.58
2019-02-12T13:12:12.732Z,6.6
2019-02-12T13:13:12.456Z,6.65
2019-02-12T13:14:13.359Z,6.71
2019-02-12T13:15:12.644Z,6.73
2019-02-12T13:16:12.582Z,6.7
2019-02-12T13:17:12.448Z,6.69
2019-02-12T13:18:12.874Z,6.75
2019-02-12T13:19:12.404Z,6.8
2019-02-12T13:20:12.256Z,6.79
2019-02-12T13:21:12.308Z,6.78
2019-02-12T13:22:12.592Z,6.78
2019-02-12T13:23:13.332Z,6.82